Terminal Aerodrome Forecast
Issued by NWS Flagstaff, AZ

Home | Current Version | Previous Version | Text Only | Print | Product List | Glossary On
Versions: 1 2 3 4 5 6 7 8 9 10 11 12 13 14 15 16
000
FTUS45 KFGZ 291720
TAFFLG
TAF
KFLG 291720Z 2918/3018 19008KT P6SM SCT070
      TEMPO 2919/2923 VRB15G25KT 4SM TSRA OVC050CB
     FM300200 VRB05KT P6SM FEW050=

USA.gov is the U.S. government's official web portal to all federal, state and local government web resources and services.